Time;durP1;ratioP1;P1;durP2;ratioP2;P2;SDS_P1;SDS_P2;PMS_P1;PMS_P2;Temp;Humidity;BMP_temperature;BMP_pressure;BME280_temperature;BME280_humidity;BME280_pressure;Samples;Min_cycle;Max_cycle;Signal;HPM_P1;HPM_P2
2022/11/23 00:04:31;;;;;;;31.40;23.45;;;;;;;1.70;100.00;98721.16;10537515;28;20044;-81
2022/11/23 00:09:33;;;;;;;33.47;22.25;;;;;;;1.50;100.00;98705.09;10503401;28;20468;-81
2022/11/23 00:14:35;;;;;;;28.02;22.15;;;;;;;1.62;100.00;98717.00;10495209;28;20040;-81
2022/11/23 00:19:37;;;;;;;27.42;21.60;;;;;;;1.80;100.00;98716.66;10483260;28;20163;-81
2022/11/23 00:24:38;;;;;;;29.90;22.00;;;;;;;1.73;100.00;98715.09;10495496;28;20063;-81
2022/11/23 00:29:40;;;;;;;34.97;23.52;;;;;;;1.81;100.00;98713.19;10477639;28;20497;-82
2022/11/23 00:34:42;;;;;;;32.83;22.90;;;;;;;1.71;100.00;98728.03;10494776;28;20110;-83
2022/11/23 00:39:43;;;;;;;30.92;21.98;;;;;;;1.70;100.00;98710.78;10494734;28;20509;-83
2022/11/23 00:44:45;;;;;;;30.77;21.77;;;;;;;1.50;100.00;98710.25;10513166;28;20143;-82
2022/11/23 00:49:47;;;;;;;39.38;23.02;;;;;;;1.68;100.00;98715.16;10512023;28;20040;-82
2022/11/23 00:55:19;;;;;;;38.95;23.15;;;;;;;1.61;100.00;98710.97;10474213;22;20045;-84
2022/11/23 01:01:29;;;;;;;31.92;23.30;;;;;;;1.28;100.00;98717.50;10423472;28;20053;-85
2022/11/23 01:06:45;;;;;;;35.58;23.02;;;;;;;1.55;100.00;98710.19;10417333;28;20063;-85
2022/11/23 01:12:01;;;;;;;30.33;22.58;;;;;;;1.59;100.00;98717.88;10414985;28;20041;-84
2022/11/23 01:17:03;;;;;;;29.83;22.42;;;;;;;1.28;100.00;98725.28;10413314;28;20045;-83
2022/11/23 01:22:08;;;;;;;31.25;22.30;;;;;;;1.63;100.00;98716.94;10457273;22;20045;-69
2022/11/23 01:27:10;;;;;;;34.35;22.23;;;;;;;1.45;100.00;98715.53;10483916;28;20044;-68
2022/11/23 01:32:11;;;;;;;31.23;20.60;;;;;;;1.21;100.00;98716.78;10483504;28;20045;-69
2022/11/23 01:37:13;;;;;;;38.40;22.67;;;;;;;1.17;100.00;98712.50;10483299;28;20040;-69
2022/11/23 01:42:15;;;;;;;28.63;20.83;;;;;;;0.88;100.00;98706.91;10502340;28;20052;-69
2022/11/23 01:47:18;;;;;;;34.00;21.00;;;;;;;0.71;100.00;98714.91;10466118;28;20049;-69
2022/11/23 01:52:25;;;;;;;35.03;21.98;;;;;;;0.69;100.00;98709.75;10482317;28;20040;-69
2022/11/23 01:57:33;;;;;;;28.25;20.55;;;;;;;0.75;100.00;98706.22;10481955;28;20094;-69
2022/11/23 02:02:37;;;;;;;22.88;18.23;;;;;;;0.70;100.00;98708.84;10483345;28;20051;-69
2022/11/23 02:07:40;;;;;;;22.73;18.98;;;;;;;0.54;100.00;98717.72;10499728;28;20044;-69
2022/11/23 02:12:42;;;;;;;26.58;20.25;;;;;;;0.39;100.00;98717.88;10499877;28;20486;-69
2022/11/23 02:17:46;;;;;;;22.10;17.98;;;;;;;0.28;100.00;98720.59;10481281;28;20051;-69
2022/11/23 02:23:01;;;;;;;21.05;18.00;;;;;;;0.37;100.00;98730.84;10486995;28;20041;-69
2022/11/23 02:28:03;;;;;;;23.20;18.50;;;;;;;0.17;100.00;98725.88;10464832;28;20055;-69
2022/11/23 02:33:05;;;;;;;19.75;16.85;;;;;;;0.09;100.00;98725.13;10497920;28;20120;-69
2022/11/23 02:38:07;;;;;;;20.23;17.25;;;;;;;0.13;100.00;98721.63;10464646;28;20178;-68
2022/11/23 02:43:09;;;;;;;28.88;17.85;;;;;;;-0.01;100.00;98733.81;10482385;28;20040;-69
2022/11/23 02:48:11;;;;;;;23.65;17.80;;;;;;;0.07;100.00;98733.75;10464584;28;20049;-69
2022/11/23 02:53:13;;;;;;;25.48;19.67;;;;;;;0.17;100.00;98738.78;10480628;28;20068;-69
2022/11/23 02:58:14;;;;;;;29.77;20.25;;;;;;;0.15;100.00;98740.56;10481053;28;20405;-69
2022/11/23 03:03:16;;;;;;;27.55;20.23;;;;;;;0.27;100.00;98747.34;10484944;28;20044;-69
2022/11/23 03:08:18;;;;;;;24.48;18.15;;;;;;;0.39;100.00;98754.06;10481936;28;20053;-69
2022/11/23 03:13:20;;;;;;;31.90;20.08;;;;;;;0.21;100.00;98748.22;10480083;28;20501;-69
2022/11/23 03:18:22;;;;;;;32.47;21.58;;;;;;;0.69;100.00;98756.28;10479483;28;20044;-69
2022/11/23 03:23:24;;;;;;;36.25;22.48;;;;;;;0.64;100.00;98760.69;10479509;28;20135;-69
2022/11/23 03:28:27;;;;;;;37.70;22.75;;;;;;;0.93;100.00;98760.31;10480120;28;20044;-69
2022/11/23 03:33:29;;;;;;;38.90;22.80;;;;;;;1.13;100.00;98761.75;10462918;28;20525;-69
2022/11/23 03:38:32;;;;;;;34.95;22.95;;;;;;;1.11;100.00;98759.22;10479515;28;20052;-69
2022/11/23 03:43:33;;;;;;;38.72;22.90;;;;;;;1.35;100.00;98754.53;10482076;28;20502;-69
2022/11/23 03:48:36;;;;;;;38.40;23.25;;;;;;;1.14;100.00;98758.28;10489134;28;20405;-69
2022/11/23 03:53:38;;;;;;;31.30;22.45;;;;;;;1.04;100.00;98769.66;10487649;28;20058;-69
2022/11/23 03:58:39;;;;;;;44.33;24.42;;;;;;;0.94;100.00;98761.16;10487446;28;20044;-69
2022/11/23 04:03:45;;;;;;;39.53;24.23;;;;;;;1.13;100.00;98756.59;10486906;28;20127;-68
2022/11/23 04:08:55;;;;;;;33.95;22.75;;;;;;;1.16;100.00;98753.97;10472625;28;20489;-69
2022/11/23 04:14:13;;;;;;;37.30;22.50;;;;;;;1.11;100.00;98753.19;10487273;28;20044;-69
2022/11/23 04:19:16;;;;;;;36.50;23.80;;;;;;;1.24;100.00;98754.72;10486695;28;20135;-69
2022/11/23 04:24:18;;;;;;;33.83;22.48;;;;;;;1.36;100.00;98757.09;10486365;28;20156;-69
2022/11/23 04:29:20;;;;;;;41.20;22.92;;;;;;;1.24;100.00;98760.75;10486204;28;20475;-69
2022/11/23 04:34:26;;;;;;;32.40;22.10;;;;;;;1.21;100.00;98765.09;10506030;28;20044;-69
2022/11/23 04:39:28;;;;;;;36.35;22.52;;;;;;;1.10;100.00;98752.28;10470570;28;20052;-70
2022/11/23 04:45:03;;;;;;;42.17;24.27;;;;;;;1.31;100.00;98758.91;10494906;28;20044;-69
2022/11/23 04:50:05;;;;;;;35.75;22.80;;;;;;;1.22;100.00;98752.13;10503929;28;20045;-69
2022/11/23 04:55:07;;;;;;;39.88;22.50;;;;;;;1.34;100.00;98758.88;10478123;28;20140;-68
2022/11/23 05:00:15;;;;;;;36.83;23.05;;;;;;;1.32;100.00;98755.44;10485782;28;20055;-69
2022/11/23 05:05:21;;;;;;;41.72;23.08;;;;;;;1.23;100.00;98755.56;10484933;28;20055;-70
2022/11/23 05:10:22;;;;;;;45.13;25.58;;;;;;;1.42;100.00;98764.78;10488391;28;20475;-69
2022/11/23 05:15:27;;;;;;;42.40;22.88;;;;;;;1.22;100.00;98764.22;10487151;28;20434;-70
2022/11/23 05:20:29;;;;;;;33.75;22.60;;;;;;;1.10;100.00;98757.47;10484432;28;20045;-69
2022/11/23 05:25:31;;;;;;;42.05;24.77;;;;;;;1.22;100.00;98759.88;10483892;28;20037;-69
2022/11/23 05:30:36;;;;;;;41.42;23.10;;;;;;;1.63;100.00;98762.72;10484214;28;20047;-69
2022/11/23 05:35:38;;;;;;;35.83;21.67;;;;;;;1.50;100.00;98762.06;10484969;28;20071;-69
2022/11/23 05:40:40;;;;;;;35.92;22.73;;;;;;;1.59;100.00;98772.28;10468367;28;20048;-69
2022/11/23 05:45:43;;;;;;;36.05;22.05;;;;;;;1.42;100.00;98777.72;10484192;28;20033;-69
2022/11/23 05:50:49;;;;;;;31.88;20.83;;;;;;;1.37;100.00;98768.31;10483436;28;20052;-69
2022/11/23 05:56:06;;;;;;;36.55;22.27;;;;;;;1.44;100.00;98775.09;10485935;28;20040;-69
2022/11/23 06:01:17;;;;;;;42.42;24.50;;;;;;;1.51;100.00;98768.97;10483945;28;20056;-69
2022/11/23 06:06:19;;;;;;;46.65;24.70;;;;;;;1.47;100.00;98769.91;10500369;28;20060;-69
2022/11/23 06:11:21;;;;;;;43.33;23.15;;;;;;;1.71;100.00;98774.66;10500518;28;20094;-68
2022/11/23 06:16:23;;;;;;;44.88;23.10;;;;;;;1.66;100.00;98773.03;10482037;28;20113;-70
2022/11/23 06:21:36;;;;;;;44.10;24.85;;;;;;;1.57;100.00;98784.41;10467527;28;20064;-69
2022/11/23 06:26:39;;;;;;;42.53;24.85;;;;;;;1.42;100.00;98798.44;10481561;28;20077;-69
2022/11/23 06:31:41;;;;;;;50.20;25.40;;;;;;;1.56;100.00;98792.22;10481398;28;20082;-69
2022/11/23 06:36:43;;;;;;;44.45;25.17;;;;;;;1.58;100.00;98799.06;10499074;28;20513;-69
2022/11/23 06:41:45;;;;;;;59.25;28.50;;;;;;;1.45;100.00;98794.94;10481492;28;20098;-68
2022/11/23 06:46:47;;;;;;;45.53;25.80;;;;;;;1.76;100.00;98797.91;10480660;28;20044;-70
2022/11/23 06:51:50;;;;;;;45.88;25.75;;;;;;;1.68;100.00;98800.66;10494012;22;20458;-70
2022/11/23 06:56:52;;;;;;;54.25;29.00;;;;;;;1.72;100.00;98804.88;10482920;28;20055;-69
2022/11/23 07:01:54;;;;;;;47.72;25.92;;;;;;;1.80;100.00;98812.53;10481980;28;20082;-70
2022/11/23 07:06:56;;;;;;;47.95;25.08;;;;;;;1.74;100.00;98810.91;10483380;28;20497;-69
2022/11/23 07:12:13;;;;;;;42.40;24.55;;;;;;;1.79;100.00;98823.78;10481826;28;20048;-70
2022/11/23 07:17:16;;;;;;;72.78;34.08;;;;;;;1.80;100.00;98825.47;10484679;28;20075;-71
2022/11/23 07:22:19;;;;;;;71.32;33.65;;;;;;;1.83;100.00;98816.81;10514969;28;20036;-71
2022/11/23 07:27:21;;;;;;;53.47;25.92;;;;;;;1.79;100.00;98820.34;10496500;28;20048;-70
2022/11/23 07:32:23;;;;;;;48.55;26.52;;;;;;;1.87;100.00;98823.66;10479220;28;20041;-70
2022/11/23 07:37:25;;;;;;;39.25;26.67;;;;;;;1.80;100.00;98820.31;10513192;28;20049;-72
2022/11/23 07:42:28;;;;;;;46.05;24.20;;;;;;;1.93;100.00;98819.22;10495885;28;20048;-71
2022/11/23 07:47:40;;;;;;;42.42;24.50;;;;;;;1.92;100.00;98840.00;10514907;28;20417;-70
2022/11/23 07:52:42;;;;;;;36.75;24.60;;;;;;;1.76;100.00;98839.38;10514265;28;20143;-70
2022/11/23 07:57:45;;;;;;;37.60;23.70;;;;;;;1.70;100.00;98836.88;10513520;28;20032;-70
2022/11/23 08:02:47;;;;;;;43.97;24.92;;;;;;;1.58;100.00;98832.72;10513685;28;20037;-70
2022/11/23 08:08:10;;;;;;;45.67;25.67;;;;;;;1.56;100.00;98828.47;10513051;28;20508;-70
2022/11/23 08:13:12;;;;;;;43.88;25.23;;;;;;;1.96;100.00;98832.13;10514361;28;20040;-71
2022/11/23 08:18:14;;;;;;;45.33;25.23;;;;;;;1.92;100.00;98833.06;10496391;28;20037;-70
2022/11/23 08:23:16;;;;;;;42.80;24.85;;;;;;;2.09;100.00;98829.34;10512027;28;20115;-71
2022/11/23 08:28:18;;;;;;;44.47;25.83;;;;;;;1.86;100.00;98830.59;10511764;28;20048;-70
2022/11/23 08:33:19;;;;;;;42.22;25.85;;;;;;;1.83;100.00;98822.84;10505310;28;20040;-70
2022/11/23 08:38:21;;;;;;;43.00;25.15;;;;;;;2.07;100.00;98819.00;10487440;28;20044;-71
2022/11/23 08:43:23;;;;;;;41.38;25.90;;;;;;;1.90;100.00;98829.63;10505543;28;20462;-70
2022/11/23 08:48:26;;;;;;;43.25;26.80;;;;;;;2.16;100.00;98825.75;10505820;28;20123;-71
2022/11/23 08:53:28;;;;;;;40.45;24.33;;;;;;;2.35;100.00;98828.91;10505973;28;20051;-70
2022/11/23 08:58:30;;;;;;;47.45;25.92;;;;;;;2.34;100.00;98827.16;10497931;28;20052;-70
2022/11/23 09:03:31;;;;;;;34.55;24.15;;;;;;;2.49;100.00;98830.34;10484498;28;20049;-70
2022/11/23 09:08:34;;;;;;;37.92;24.70;;;;;;;2.76;100.00;98839.34;10500132;28;20055;-70
2022/11/23 09:13:37;;;;;;;34.50;22.80;;;;;;;2.83;100.00;98834.88;10501647;28;20040;-72
2022/11/23 09:18:39;;;;;;;35.42;23.95;;;;;;;2.96;100.00;98828.56;10484647;28;20041;-72
2022/11/23 09:23:40;;;;;;;34.03;23.90;;;;;;;3.17;100.00;98845.44;10503017;28;20098;-72
2022/11/23 09:28:42;;;;;;;41.10;25.45;;;;;;;2.95;100.00;98836.38;10483899;28;20044;-72
2022/11/23 09:33:45;;;;;;;33.47;24.02;;;;;;;3.05;100.00;98832.72;10502392;28;20045;-73
2022/11/23 09:38:48;;;;;;;41.00;24.20;;;;;;;3.57;100.00;98822.94;10501818;28;20441;-72
2022/11/23 09:44:15;;;;;;;32.30;22.75;;;;;;;3.80;99.46;98818.91;10501724;28;20043;-72
2022/11/23 09:49:25;;;;;;;42.88;24.25;;;;;;;3.75;100.00;98827.72;10501378;28;20040;-72
2022/11/23 09:54:36;;;;;;;32.80;23.85;;;;;;;4.07;99.56;98819.13;10498765;28;20036;-72
2022/11/23 09:59:57;;;;;;;53.92;30.73;;;;;;;4.17;100.00;98818.03;10500245;28;20047;-72
2022/11/23 10:05:02;;;;;;;41.65;25.00;;;;;;;4.40;99.55;98817.44;10501679;28;20115;-73
2022/11/23 10:10:43;;;;;;;39.85;24.80;;;;;;;4.65;96.45;98815.03;10523805;28;20055;-73
2022/11/23 10:16:16;;;;;;;34.15;23.40;;;;;;;4.70;96.96;98802.75;10474033;28;20052;-73
2022/11/23 10:21:42;;;;;;;28.92;22.38;;;;;;;4.83;97.98;98810.22;10505141;28;20040;-72
2022/11/23 10:26:46;;;;;;;36.08;23.40;;;;;;;4.95;97.67;98805.50;10543947;28;20036;-73
2022/11/23 10:31:49;;;;;;;23.77;20.85;;;;;;;5.44;91.99;98796.22;10524287;28;20184;-72
2022/11/23 10:36:57;;;;;;;30.52;21.48;;;;;;;5.50;94.11;98795.19;10524065;28;20123;-73
2022/11/23 10:42:02;;;;;;;23.65;20.92;;;;;;;5.94;89.72;98780.78;10490007;28;20463;-73
2022/11/23 10:47:04;;;;;;;27.58;21.35;;;;;;;6.21;90.15;98788.59;10500204;28;20041;-72
2022/11/23 10:52:27;;;;;;;26.33;21.35;;;;;;;6.42;86.54;98785.25;10480609;28;20056;-72
2022/11/23 10:57:40;;;;;;;24.55;18.98;;;;;;;6.60;84.40;98780.25;10499754;28;20055;-74
2022/11/23 11:02:50;;;;;;;20.85;18.40;;;;;;;7.05;81.75;98777.72;10499658;28;20040;-72
2022/11/23 11:07:54;;;;;;;19.15;16.65;;;;;;;6.88;82.36;98780.97;10500289;28;20032;-73
2022/11/23 11:12:56;;;;;;;20.02;18.10;;;;;;;6.62;83.02;98773.22;10498582;28;20048;-73
2022/11/23 11:17:58;;;;;;;19.80;17.70;;;;;;;6.80;82.49;98781.25;10480574;28;20056;-73
2022/11/23 11:23:19;;;;;;;19.50;17.38;;;;;;;6.61;85.18;98772.38;10499143;28;20036;-70
2022/11/23 11:28:32;;;;;;;19.40;17.45;;;;;;;6.78;83.14;98771.78;10498674;28;20504;-71
2022/11/23 11:33:48;;;;;;;19.85;17.90;;;;;;;6.55;84.34;98762.13;10499353;28;20051;-70
2022/11/23 11:38:54;;;;;;;21.27;18.02;;;;;;;6.69;84.29;98770.34;10498585;28;20401;-70
2022/11/23 11:44:22;;;;;;;19.38;17.45;;;;;;;6.72;83.79;98770.22;10499458;28;20036;-70
2022/11/23 11:49:30;;;;;;;24.35;18.05;;;;;;;6.40;86.27;98765.31;10498495;28;20497;-70
2022/11/23 11:54:45;;;;;;;21.40;17.88;;;;;;;6.86;85.02;98772.31;10480335;28;20098;-70
2022/11/23 11:59:56;;;;;;;18.60;16.75;;;;;;;6.99;83.06;98762.28;10497487;28;20067;-70
2022/11/23 12:05:22;;;;;;;21.45;17.17;;;;;;;7.02;82.69;98764.78;10483669;28;20040;-69
2022/11/23 12:10:48;;;;;;;23.02;16.05;;;;;;;7.05;82.65;98765.53;10505877;28;20044;-69
2022/11/23 12:16:08;;;;;;;17.88;15.90;;;;;;;6.86;83.89;98764.47;10505357;28;20051;-70
2022/11/23 12:21:27;;;;;;;17.27;15.45;;;;;;;7.30;81.18;98754.09;10488440;28;20063;-70
2022/11/23 12:26:44;;;;;;;18.10;16.23;;;;;;;7.25;80.76;98754.28;10506430;28;20041;-69
2022/11/23 12:31:49;;;;;;;18.52;16.58;;;;;;;7.17;81.17;98747.66;10505712;28;20059;-71
2022/11/23 12:37:12;;;;;;;18.25;16.40;;;;;;;6.85;83.75;98754.94;10486962;28;20074;-71
2022/11/23 12:42:29;;;;;;;17.58;15.55;;;;;;;6.86;84.19;98756.66;10506015;28;20036;-74
2022/11/23 12:47:37;;;;;;;17.15;15.38;;;;;;;6.87;84.36;98755.75;10488432;28;20037;-70
2022/11/23 12:52:59;;;;;;;17.35;15.48;;;;;;;6.71;84.84;98746.78;10518757;22;20544;-75
2022/11/23 12:58:14;;;;;;;19.67;15.63;;;;;;;6.72;84.09;98753.69;10485532;28;20046;-74
2022/11/23 13:03:53;;;;;;;24.38;16.90;;;;;;;6.85;82.71;98760.19;10504085;28;20044;-74
2022/11/23 13:09:22;;;;;;;19.25;16.27;;;;;;;6.80;84.21;98767.34;10504359;28;20063;-74
2022/11/23 13:14:32;;;;;;;19.23;17.38;;;;;;;6.51;86.72;98764.03;10503082;28;20045;-74
2022/11/23 13:19:59;;;;;;;23.52;19.23;;;;;;;6.51;86.32;98768.41;10501620;28;20041;-74
2022/11/23 13:25:11;;;;;;;21.58;19.33;;;;;;;6.77;83.78;98767.44;10503957;28;20044;-74
2022/11/23 13:30:33;;;;;;;25.13;21.23;;;;;;;6.57;85.46;98770.78;10484875;28;20556;-75
2022/11/23 13:35:58;;;;;;;28.35;20.08;;;;;;;6.60;84.34;98772.41;10501521;28;20037;-73
2022/11/23 13:41:33;;;;;;;28.10;22.58;;;;;;;6.60;84.73;98773.28;10502566;28;20086;-74
2022/11/23 13:46:35;;;;;;;25.63;21.70;;;;;;;6.56;83.91;98772.53;10483708;28;20045;-74
2022/11/23 13:51:37;;;;;;;24.33;21.75;;;;;;;6.43;84.64;98767.81;10503500;28;20093;-74
2022/11/23 13:56:42;;;;;;;31.95;22.08;;;;;;;6.35;85.02;98768.06;10503816;28;20037;-75
2022/11/23 14:01:59;;;;;;;33.67;21.98;;;;;;;5.99;86.13;98772.78;10503087;28;20492;-74
2022/11/23 14:07:05;;;;;;;29.17;22.65;;;;;;;6.03;86.92;98777.00;10502866;28;20120;-75
2022/11/23 14:12:10;;;;;;;33.50;22.70;;;;;;;5.79;88.13;98770.78;10502759;28;20040;-74
2022/11/23 14:17:30;;;;;;;29.00;21.63;;;;;;;5.74;88.76;98768.34;10501548;28;20045;-73
2022/11/23 14:29:34;;;;;;;31.83;22.58;;;;;;;5.79;88.53;98776.00;10501563;28;20028;-74
2022/11/23 14:34:48;;;;;;;31.73;22.40;;;;;;;5.57;90.23;98787.13;10483254;28;20045;-75
2022/11/23 14:39:56;;;;;;;36.05;22.10;;;;;;;5.28;91.99;98785.44;10500338;28;20481;-73
2022/11/23 14:45:03;;;;;;;37.67;23.67;;;;;;;5.15;92.60;98789.28;10499298;28;20037;-73
2022/11/23 14:50:16;;;;;;;35.63;23.10;;;;;;;5.01;93.87;98781.91;10481532;28;20055;-74
2022/11/23 14:55:22;;;;;;;37.80;22.83;;;;;;;5.13;93.84;98785.88;10502028;28;20393;-73
2022/11/23 15:00:26;;;;;;;37.90;24.77;;;;;;;5.03;93.19;98787.03;10482284;28;20036;-73
2022/11/23 15:05:37;;;;;;;35.22;22.95;;;;;;;5.09;93.36;98779.06;10483947;28;20048;-72
2022/11/23 15:10:51;;;;;;;32.25;24.10;;;;;;;4.87;94.03;98788.38;10482954;28;20432;-73
2022/11/23 15:16:02;;;;;;;42.05;25.05;;;;;;;5.01;92.97;98781.91;10500869;28;20044;-73
2022/11/23 15:21:10;;;;;;;40.85;24.80;;;;;;;4.92;93.71;98789.13;10481167;28;20036;-74
2022/11/23 15:26:33;;;;;;;40.90;23.67;;;;;;;4.90;93.31;98790.91;10501347;28;20047;-74
2022/11/23 15:31:49;;;;;;;34.60;23.95;;;;;;;4.70;95.26;98799.28;10499715;28;20378;-74
2022/11/23 15:37:11;;;;;;;37.38;23.98;;;;;;;4.42;96.70;98806.97;10503646;28;20045;-74
2022/11/23 15:42:18;;;;;;;34.72;24.67;;;;;;;4.42;98.58;98810.41;10505289;28;20040;-74
2022/11/23 15:47:27;;;;;;;;;;;;;;;4.57;97.05;98810.94;10507039;28;20048;-73
2022/11/23 15:52:37;;;;;;;40.42;24.48;;;;;;;4.37;98.36;98814.91;10506809;28;19966;-74
2022/11/23 15:57:40;;;;;;;32.30;23.92;;;;;;;4.31;97.98;98822.88;10507512;28;20043;-74
2022/11/23 16:02:42;;;;;;;39.28;24.58;;;;;;;4.03;100.00;98823.56;10492431;28;20498;-75
2022/11/23 16:07:56;;;;;;;40.38;24.58;;;;;;;3.97;100.00;98821.09;10503461;28;20040;-73
2022/11/23 16:13:00;;;;;;;30.55;22.92;;;;;;;4.01;100.00;98821.91;10501893;28;20044;-73
2022/11/23 16:18:11;;;;;;;37.53;24.52;;;;;;;3.91;100.00;98826.47;10485892;28;20048;-72
2022/11/23 16:23:19;;;;;;;42.67;25.45;;;;;;;3.99;100.00;98827.13;10500318;28;20052;-74
2022/11/23 16:28:28;;;;;;;43.05;26.33;;;;;;;4.01;100.00;98824.50;10504469;28;20047;-73
2022/11/23 16:33:30;;;;;;;43.78;26.52;;;;;;;3.92;100.00;98830.75;10504462;28;20552;-74
2022/11/23 16:38:31;;;;;;;45.92;28.63;;;;;;;3.93;100.00;98836.81;10505281;28;20040;-73
2022/11/23 16:43:33;;;;;;;41.30;26.00;;;;;;;3.87;100.00;98830.03;10505844;28;20044;-74
2022/11/23 16:48:38;;;;;;;44.85;26.40;;;;;;;3.91;100.00;98831.66;10487383;28;20048;-74
2022/11/23 16:53:41;;;;;;;46.45;25.00;;;;;;;3.99;100.00;98829.75;10501916;28;20490;-74
2022/11/23 16:59:03;;;;;;;46.63;26.52;;;;;;;3.85;100.00;98836.13;10503646;28;20045;-73
2022/11/23 17:04:04;;;;;;;44.45;27.10;;;;;;;3.86;100.00;98832.69;10486882;28;20096;-74
2022/11/23 17:09:06;;;;;;;41.53;25.05;;;;;;;3.58;100.00;98829.84;10500852;28;20509;-73
2022/11/23 17:14:13;;;;;;;50.63;28.73;;;;;;;3.37;100.00;98831.19;10502088;28;20048;-73
2022/11/23 17:19:21;;;;;;;42.13;25.60;;;;;;;3.38;100.00;98830.31;10503424;28;20486;-74
2022/11/23 17:24:26;;;;;;;;;;;;;;;3.61;100.00;98825.44;10504308;28;20043;-74
2022/11/23 17:29:29;;;;;;;49.92;26.98;;;;;;;3.40;100.00;98823.31;10486631;28;19920;-75
2022/11/23 17:34:31;;;;;;;50.90;28.23;;;;;;;3.64;100.00;98832.31;10501238;28;20053;-75
2022/11/23 17:39:33;;;;;;;39.72;26.45;;;;;;;3.73;100.00;98837.31;10501070;28;20040;-74
2022/11/23 17:44:35;;;;;;;42.47;27.45;;;;;;;3.40;100.00;98849.28;10502407;28;20046;-74
2022/11/23 17:49:37;;;;;;;53.05;28.80;;;;;;;3.44;100.00;98837.94;10504472;28;20040;-74
2022/11/23 17:54:38;;;;;;;49.60;28.60;;;;;;;3.53;100.00;98843.78;10483526;28;20043;-70
2022/11/23 17:59:41;;;;;;;45.58;26.88;;;;;;;3.27;100.00;98849.56;10501115;28;20434;-69
2022/11/23 18:04:42;;;;;;;50.75;29.13;;;;;;;3.38;100.00;98846.75;10481740;28;20041;-69
2022/11/23 18:09:45;;;;;;;57.95;30.27;;;;;;;3.50;100.00;98851.69;10482921;28;20051;-70
2022/11/23 18:14:47;;;;;;;51.97;29.95;;;;;;;3.17;100.00;98853.25;10475653;28;20041;-70
2022/11/23 18:19:49;;;;;;;54.15;29.23;;;;;;;3.38;100.00;98851.09;10481526;28;20391;-70
2022/11/23 18:24:51;;;;;;;46.60;27.92;;;;;;;3.19;100.00;98850.63;10498099;28;20131;-70
2022/11/23 18:29:54;;;;;;;51.40;28.75;;;;;;;3.28;100.00;98859.06;10500865;28;20047;-76
2022/11/23 18:34:56;;;;;;;53.70;29.85;;;;;;;3.15;100.00;98862.81;10483042;28;20045;-75
2022/11/23 18:39:58;;;;;;;46.55;27.85;;;;;;;3.02;100.00;98859.59;10481805;28;20199;-75
2022/11/23 18:45:00;;;;;;;49.38;29.15;;;;;;;2.95;100.00;98862.34;10499002;28;20036;-76
2022/11/23 18:50:01;;;;;;;51.90;27.13;;;;;;;2.89;100.00;98863.34;10481357;28;20041;-76
2022/11/23 18:55:07;;;;;;;50.40;28.70;;;;;;;2.77;100.00;98854.03;10499082;28;20036;-70
2022/11/23 19:00:11;;;;;;;53.85;28.05;;;;;;;3.00;100.00;98850.97;10498829;28;20052;-70
2022/11/23 19:05:12;;;;;;;43.30;28.40;;;;;;;2.88;100.00;98853.84;10497673;28;20041;-69
2022/11/23 19:10:15;;;;;;;52.80;28.83;;;;;;;2.59;100.00;98853.53;10479714;28;20051;-70
2022/11/23 19:15:16;;;;;;;50.17;28.98;;;;;;;2.60;100.00;98860.41;10497770;28;20111;-70
2022/11/23 19:20:20;;;;;;;47.88;28.45;;;;;;;2.71;100.00;98871.47;10498224;28;20045;-70
2022/11/23 19:25:22;;;;;;;41.25;26.45;;;;;;;2.59;100.00;98874.28;10500659;28;20037;-69
2022/11/23 19:30:24;;;;;;;52.33;28.95;;;;;;;2.22;100.00;98873.19;10518386;28;20448;-69
2022/11/23 19:35:27;;;;;;;62.70;32.10;;;;;;;2.23;100.00;98881.81;10500014;28;20402;-70
2022/11/23 19:40:29;;;;;;;53.38;30.27;;;;;;;2.22;100.00;98887.91;10503047;28;20132;-70
2022/11/23 19:45:31;;;;;;;45.42;28.70;;;;;;;2.03;100.00;98895.94;10540459;28;20375;-74
2022/11/23 19:50:33;;;;;;;51.72;28.92;;;;;;;1.89;100.00;98899.63;10543448;28;20566;-75
2022/11/23 19:55:35;;;;;;;51.42;30.33;;;;;;;1.72;100.00;98899.88;10510175;28;20044;-74
2022/11/23 20:00:38;;;;;;;50.63;29.10;;;;;;;1.67;100.00;98897.34;10502780;28;20052;-74
2022/11/23 20:06:09;;;;;;;53.78;30.98;;;;;;;1.71;100.00;98895.56;10500714;28;20041;-74
2022/11/23 20:11:14;;;;;;;52.40;29.42;;;;;;;1.79;100.00;98904.09;10497271;28;20080;-74
2022/11/23 20:16:18;;;;;;;54.25;29.95;;;;;;;1.81;100.00;98898.88;10482603;28;20074;-74
2022/11/23 20:21:19;;;;;;;51.15;28.00;;;;;;;1.62;100.00;98895.72;10499941;28;20037;-74
2022/11/23 20:26:21;;;;;;;52.08;27.98;;;;;;;1.86;100.00;98897.06;10505181;28;20040;-73
2022/11/23 20:31:25;;;;;;;49.45;28.45;;;;;;;1.75;100.00;98911.06;10509474;28;20055;-74
2022/11/23 20:36:29;;;;;;;52.17;27.85;;;;;;;1.64;100.00;98917.25;10546880;28;20079;-74
2022/11/23 20:41:34;;;;;;;38.88;26.95;;;;;;;1.47;100.00;98910.59;10553957;28;20044;-74
2022/11/23 20:46:36;;;;;;;45.25;27.27;;;;;;;1.34;100.00;98914.22;10552838;28;20036;-75
2022/11/23 20:51:59;;;;;;;46.65;27.92;;;;;;;1.24;100.00;98915.19;10507767;28;20048;-74
2022/11/23 20:57:01;;;;;;;38.05;26.55;;;;;;;1.08;100.00;98921.44;10509382;28;20041;-75
2022/11/23 21:02:03;;;;;;;48.38;28.75;;;;;;;1.07;100.00;98936.09;10477805;28;20054;-74
2022/11/23 21:07:08;;;;;;;50.38;29.33;;;;;;;0.95;100.00;98931.91;10507920;28;20119;-74
2022/11/23 21:17:32;;;;;;;51.50;28.85;;;;;;;0.86;100.00;98955.28;10504906;28;20041;-74
2022/11/23 21:22:34;;;;;;;59.28;29.55;;;;;;;0.61;100.00;98951.22;10486249;28;20086;-73
2022/11/23 21:27:36;;;;;;;47.22;28.95;;;;;;;0.48;100.00;98956.47;10487392;28;20051;-73
2022/11/23 21:32:38;;;;;;;48.95;28.13;;;;;;;0.72;100.00;98965.78;10504776;28;20055;-73
2022/11/23 21:37:39;;;;;;;48.85;26.92;;;;;;;0.82;100.00;98973.44;10503155;28;20041;-73
2022/11/23 21:42:43;;;;;;;43.67;28.02;;;;;;;0.63;100.00;98962.41;10503621;28;20059;-73
2022/11/23 21:47:45;;;;;;;43.72;25.35;;;;;;;0.44;100.00;98972.91;10505737;28;20040;-73
2022/11/23 21:52:47;;;;;;;37.55;25.27;;;;;;;0.21;100.00;98977.38;10504298;28;20509;-73
2022/11/23 21:57:48;;;;;;;42.65;25.48;;;;;;;0.16;100.00;98979.16;10502887;28;20036;-73
2022/11/23 22:03:00;;;;;;;45.78;27.00;;;;;;;0.27;100.00;98974.78;10487033;28;20114;-72
2022/11/23 22:08:04;;;;;;;49.05;24.60;;;;;;;0.45;100.00;98981.53;10487556;28;20049;-72
2022/11/23 22:13:26;;;;;;;33.28;23.02;;;;;;;0.38;100.00;98985.03;10503753;28;20048;-72
2022/11/23 22:18:30;;;;;;;35.72;24.42;;;;;;;-0.02;100.00;98985.28;10484682;28;20116;-71
2022/11/23 22:23:31;;;;;;;33.65;23.08;;;;;;;-0.24;100.00;98999.19;10505403;28;20054;-72
2022/11/23 22:28:36;;;;;;;37.40;22.90;;;;;;;0.03;100.00;99003.34;10503154;28;20043;-72
2022/11/23 22:33:39;;;;;;;36.80;23.35;;;;;;;-0.16;100.00;99003.44;10470462;28;20052;-71
2022/11/23 22:38:41;;;;;;;30.15;21.17;;;;;;;-0.24;100.00;99012.09;10504501;28;20036;-71
2022/11/23 22:43:43;;;;;;;23.45;19.48;;;;;;;-0.10;100.00;99011.16;10501806;28;20569;-72
2022/11/23 22:48:46;;;;;;;26.08;18.17;;;;;;;-0.22;100.00;99021.56;10500788;28;20490;-72
2022/11/23 22:53:53;;;;;;;19.55;16.52;;;;;;;-0.30;100.00;99018.16;10501176;28;20058;-71
2022/11/23 22:59:01;;;;;;;23.05;17.70;;;;;;;-0.47;100.00;99025.97;10500905;28;20060;-72
2022/11/23 23:04:03;;;;;;;19.25;16.17;;;;;;;-0.43;100.00;99022.50;10484259;28;20062;-72
2022/11/23 23:09:08;;;;;;;17.38;15.65;;;;;;;-0.55;100.00;99027.72;10499858;28;20040;-72
2022/11/23 23:14:09;;;;;;;23.02;17.35;;;;;;;-0.25;100.00;99024.16;10500457;28;20041;-72
2022/11/23 23:19:11;;;;;;;18.08;13.82;;;;;;;-0.39;100.00;99031.97;10501281;28;20112;-72
2022/11/23 23:24:13;;;;;;;16.40;13.13;;;;;;;-0.24;100.00;99036.19;10482114;28;20072;-72
2022/11/23 23:29:15;;;;;;;15.00;12.80;;;;;;;-0.32;100.00;99043.97;10499332;28;20116;-71
2022/11/23 23:34:17;;;;;;;15.88;12.48;;;;;;;-0.32;100.00;99048.28;10480698;28;20052;-72